Time;durP1;ratioP1;P1;durP2;ratioP2;P2;SDS_P1;SDS_P2;PMS_P1;PMS_P2;Temp;Humidity;BMP_temperature;BMP_pressure;BME280_temperature;BME280_humidity;BME280_pressure;Samples;Min_cycle;Max_cycle;Signal;HPM_P1;HPM_P2
2022/10/21 00:01:04;;;;;;;18.85;11.35;;;;;;;17.17;100.00;96282.75;4966390;28;20079;-49
2022/10/21 00:03:34;;;;;;;16.10;10.32;;;;;;;17.19;100.00;96279.88;4963240;28;20094;-44
2022/10/21 00:06:03;;;;;;;16.80;11.13;;;;;;;17.29;100.00;96285.72;4968421;28;20078;-49
2022/10/21 00:08:32;;;;;;;18.48;11.48;;;;;;;16.79;100.00;96279.47;4968535;28;20082;-50
2022/10/21 00:11:02;;;;;;;18.05;11.32;;;;;;;16.61;100.00;96267.34;4967760;28;20541;-52
2022/10/21 00:13:31;;;;;;;18.92;11.85;;;;;;;16.81;100.00;96274.78;4961329;28;20461;-48
2022/10/21 00:16:01;;;;;;;15.63;11.07;;;;;;;17.75;100.00;96272.75;4967189;28;20086;-52
2022/10/21 00:18:30;;;;;;;17.00;11.20;;;;;;;17.94;100.00;96259.81;4967268;28;20081;-43
2022/10/21 00:21:00;;;;;;;14.88;11.23;;;;;;;16.99;100.00;96258.38;4965809;28;20720;-50
2022/10/21 00:23:28;;;;;;;18.27;11.13;;;;;;;18.39;100.00;96263.75;4962891;28;20529;-47
2022/10/21 00:25:57;;;;;;;16.83;11.07;;;;;;;18.09;100.00;96265.84;4968316;28;20508;-45
2022/10/21 00:28:25;;;;;;;16.10;10.40;;;;;;;16.93;100.00;96269.78;4966010;28;20097;-43
2022/10/21 00:30:54;;;;;;;18.15;11.60;;;;;;;17.23;100.00;96254.50;4965606;28;20086;-45
2022/10/21 00:33:26;;;;;;;15.63;11.25;;;;;;;17.59;100.00;96265.06;4966033;28;20093;-46
2022/10/21 00:35:57;;;;;;;16.83;11.23;;;;;;;17.64;100.00;96249.31;4968475;28;20089;-46
2022/10/21 00:38:26;;;;;;;21.92;11.85;;;;;;;17.14;100.00;96250.34;4966507;28;20082;-47
2022/10/21 00:40:55;;;;;;;18.20;12.18;;;;;;;18.33;100.00;96245.84;4965235;28;20546;-49
2022/10/21 00:43:24;;;;;;;16.92;11.35;;;;;;;18.93;100.00;96256.78;4967034;28;20086;-48
2022/10/21 00:45:54;;;;;;;16.45;11.77;;;;;;;19.01;100.00;96272.63;4966650;28;20078;-48
2022/10/21 00:48:26;;;;;;;15.07;11.77;;;;;;;19.16;100.00;96267.91;4967060;28;20509;-47
2022/10/21 00:50:56;;;;;;;19.38;12.35;;;;;;;19.21;100.00;96262.81;4967088;28;20083;-48
2022/10/21 00:53:26;;;;;;;19.77;13.43;;;;;;;18.97;100.00;96250.84;4966951;28;20078;-45
2022/10/21 00:55:58;;;;;;;16.58;12.40;;;;;;;18.96;100.00;96251.88;4967202;28;21507;-45
2022/10/21 00:58:29;;;;;;;19.08;12.65;;;;;;;19.18;100.00;96262.38;4966927;28;20086;-46
2022/10/21 01:00:58;;;;;;;15.48;12.48;;;;;;;19.31;100.00;96258.91;4966793;28;20079;-49
2022/10/21 01:03:28;;;;;;;17.30;12.50;;;;;;;18.84;100.00;96247.31;4967309;28;20556;-47
2022/10/21 01:05:57;;;;;;;17.30;12.73;;;;;;;18.30;100.00;96238.22;4968512;28;20509;-45
2022/10/21 01:08:28;;;;;;;20.65;13.57;;;;;;;18.49;100.00;96242.84;4967229;28;20093;-43
2022/10/21 01:10:56;;;;;;;18.15;13.07;;;;;;;18.92;100.00;96260.47;4971433;28;20526;-43
2022/10/21 01:13:28;;;;;;;15.75;12.73;;;;;;;18.69;100.00;96260.81;4969802;28;20518;-45
2022/10/21 01:16:02;;;;;;;17.77;12.95;;;;;;;18.60;100.00;96249.47;4970414;28;20113;-43
2022/10/21 01:18:36;;;;;;;23.25;12.77;;;;;;;19.02;100.00;96247.53;4966924;28;20093;-44
2022/10/21 01:21:20;;;;;;;20.00;13.52;;;;;;;19.28;100.00;96252.13;4965087;28;20074;-48
2022/10/21 01:24:23;;;;;;;16.80;12.90;;;;;;;19.19;100.00;96247.97;4966289;28;20082;-48
2022/10/21 01:27:12;;;;;;;18.35;13.00;;;;;;;19.43;100.00;96244.72;4971221;28;20086;-42
2022/10/21 01:30:08;;;;;;;19.20;12.35;;;;;;;18.87;100.00;96234.38;4970594;28;20074;-48
2022/10/21 01:32:56;;;;;;;18.23;13.05;;;;;;;18.83;100.00;96251.00;4970728;28;20106;-44
2022/10/21 01:35:26;;;;;;;18.80;11.80;;;;;;;19.31;100.00;96245.56;4969634;28;20089;-47
2022/10/21 01:38:01;;;;;;;19.65;13.02;;;;;;;19.39;100.00;96243.47;4972447;28;20086;-45
2022/10/21 01:40:33;;;;;;;18.85;13.13;;;;;;;19.30;100.00;96230.50;4968924;28;20466;-47
2022/10/21 01:43:08;;;;;;;20.60;12.50;;;;;;;18.82;100.00;96222.63;4976094;28;20070;-45
2022/10/21 01:45:38;;;;;;;15.13;12.10;;;;;;;18.71;100.00;96219.53;4970505;28;20066;-44
2022/10/21 01:48:10;;;;;;;19.02;12.50;;;;;;;18.95;100.00;96209.28;4970442;28;20066;-45
2022/10/21 01:50:43;;;;;;;19.45;13.18;;;;;;;18.66;100.00;96213.13;4969837;28;20073;-45
2022/10/21 01:53:13;;;;;;;15.25;12.90;;;;;;;19.15;100.00;96207.47;4968606;28;20083;-45
2022/10/21 01:55:41;;;;;;;19.17;13.00;;;;;;;19.18;100.00;96200.91;4971021;28;20085;-44
2022/10/21 01:58:13;;;;;;;20.80;13.65;;;;;;;18.58;100.00;96194.59;4969402;28;20078;-48
2022/10/21 02:00:43;;;;;;;22.15;12.93;;;;;;;18.44;100.00;96191.91;4968076;28;20039;-43
2022/10/21 02:03:17;;;;;;;18.90;13.32;;;;;;;18.56;100.00;96194.81;4969972;28;20082;-50
2022/10/21 02:05:45;;;;;;;18.25;12.70;;;;;;;17.74;100.00;96209.78;4967107;28;20083;-43
2022/10/21 02:08:13;;;;;;;16.92;12.57;;;;;;;18.00;100.00;96200.34;4965394;28;20087;-45
2022/10/21 02:10:46;;;;;;;15.80;12.30;;;;;;;18.86;100.00;96198.00;4967045;28;20447;-45
2022/10/21 02:13:18;;;;;;;19.77;12.70;;;;;;;18.18;100.00;96187.28;4968993;28;20082;-45
2022/10/21 02:15:47;;;;;;;17.00;12.80;;;;;;;18.54;100.00;96196.84;4968678;28;20419;-42
2022/10/21 02:18:22;;;;;;;16.60;12.45;;;;;;;19.18;100.00;96198.22;4969707;28;20474;-46
2022/10/21 02:20:54;;;;;;;18.10;13.38;;;;;;;19.27;100.00;96204.19;4966973;28;20218;-45
2022/10/21 02:23:26;;;;;;;16.77;13.02;;;;;;;19.29;100.00;96200.28;4971412;28;20513;-47
2022/10/21 02:25:55;;;;;;;19.45;12.90;;;;;;;19.12;100.00;96191.03;4972154;28;20093;-48
2022/10/21 02:28:23;;;;;;;15.52;11.68;;;;;;;18.38;100.00;96190.03;4971981;28;20511;-42
2022/10/21 02:30:59;;;;;;;20.95;14.00;;;;;;;17.71;100.00;96178.16;4972289;28;20459;-45
2022/10/21 02:33:33;;;;;;;18.25;12.57;;;;;;;17.47;100.00;96171.44;4971308;28;20074;-44
2022/10/21 02:36:09;;;;;;;17.83;11.55;;;;;;;17.18;100.00;96166.34;4968559;28;20073;-43
2022/10/21 02:38:41;;;;;;;18.67;12.52;;;;;;;18.68;100.00;96185.16;4967659;28;20067;-43
2022/10/21 02:41:11;;;;;;;18.17;12.43;;;;;;;18.96;100.00;96182.38;4971757;28;20089;-47
2022/10/21 02:43:41;;;;;;;19.70;12.65;;;;;;;18.20;100.00;96187.91;4971768;28;20063;-49
2022/10/21 02:46:12;;;;;;;21.13;12.40;;;;;;;18.41;100.00;96183.44;4972406;28;20094;-51
2022/10/21 02:48:44;;;;;;;15.43;11.95;;;;;;;18.85;100.00;96174.94;4971983;28;20075;-42
2022/10/21 02:51:13;;;;;;;17.00;12.27;;;;;;;19.06;100.00;96176.63;4971333;28;20505;-47
2022/10/21 02:53:41;;;;;;;17.38;12.00;;;;;;;17.68;100.00;96169.72;4966775;28;20748;-42
2022/10/21 02:56:10;;;;;;;15.48;11.32;;;;;;;17.25;100.00;96159.22;4969442;28;20540;-46
2022/10/21 02:58:38;;;;;;;18.15;11.68;;;;;;;17.25;100.00;96154.69;4970930;28;20714;-42
2022/10/21 03:01:06;;;;;;;19.73;12.27;;;;;;;17.49;100.00;96149.94;4970884;28;20082;-47
2022/10/21 03:03:35;;;;;;;18.23;12.10;;;;;;;17.79;100.00;96151.38;4968794;28;20066;-44
2022/10/21 03:06:04;;;;;;;17.02;12.23;;;;;;;17.82;100.00;96150.16;4965434;28;20133;-45
2022/10/21 03:08:33;;;;;;;19.07;12.57;;;;;;;17.66;100.00;96137.94;4970514;28;20079;-45
2022/10/21 03:11:01;;;;;;;16.35;12.48;;;;;;;17.29;100.00;96134.63;4967811;28;20509;-43
2022/10/21 03:13:29;;;;;;;15.95;11.75;;;;;;;17.49;100.00;96140.09;4967189;28;20078;-48
2022/10/21 03:15:58;;;;;;;15.98;11.57;;;;;;;18.60;100.00;96129.28;4966462;28;20078;-46
2022/10/21 03:18:26;;;;;;;18.23;12.05;;;;;;;18.31;100.00;96138.47;4967928;28;20071;-43
2022/10/21 03:20:54;;;;;;;16.80;11.48;;;;;;;17.94;100.00;96137.09;4967915;28;20079;-44
2022/10/21 03:23:24;;;;;;;19.27;11.93;;;;;;;18.68;100.00;96125.59;4968323;28;20094;-42
2022/10/21 03:25:52;;;;;;;17.40;12.03;;;;;;;18.68;100.00;96126.41;4969624;28;20068;-47
2022/10/21 03:28:21;;;;;;;15.50;12.32;;;;;;;18.42;100.00;96121.03;4967569;28;20505;-46
2022/10/21 03:30:49;;;;;;;15.20;11.73;;;;;;;18.86;100.00;96123.19;4966656;28;20085;-45
2022/10/21 03:33:17;;;;;;;19.52;11.75;;;;;;;18.61;100.00;96122.91;4967234;28;20554;-43
2022/10/21 03:35:45;;;;;;;16.75;12.32;;;;;;;18.07;100.00;96131.81;4968961;28;20094;-44
2022/10/21 03:38:13;;;;;;;15.32;12.02;;;;;;;18.64;100.00;96127.84;4969644;28;20077;-44
2022/10/21 03:40:43;;;;;;;18.15;12.90;;;;;;;19.03;100.00;96125.44;4966375;28;20775;-47
2022/10/21 03:43:11;;;;;;;18.30;12.73;;;;;;;18.27;100.00;96124.69;4967462;28;20093;-42
2022/10/21 03:45:40;;;;;;;18.73;13.65;;;;;;;18.86;100.00;96138.41;4968064;28;20552;-48
2022/10/21 03:48:08;;;;;;;18.58;12.77;;;;;;;18.81;100.00;96128.31;4964257;28;20062;-42
2022/10/21 03:50:36;;;;;;;16.38;12.70;;;;;;;18.32;100.00;96132.09;4967328;28;20074;-43
2022/10/21 03:53:05;;;;;;;16.52;13.07;;;;;;;18.39;100.00;96119.56;4965766;28;20078;-49
2022/10/21 03:55:47;;;;;;;17.60;13.40;;;;;;;18.78;100.00;96122.53;4967807;28;20512;-50
2022/10/21 03:58:20;;;;;;;17.83;12.80;;;;;;;18.39;100.00;96111.56;4967505;28;20078;-43
2022/10/21 04:00:51;;;;;;;16.50;12.82;;;;;;;18.65;100.00;96113.47;4966297;28;20078;-42
2022/10/21 04:03:20;;;;;;;18.88;13.50;;;;;;;17.40;100.00;96116.44;4967244;28;20101;-48
2022/10/21 04:05:48;;;;;;;16.63;13.07;;;;;;;17.39;100.00;96112.97;4964471;28;20070;-42
2022/10/21 04:08:16;;;;;;;18.55;12.55;;;;;;;17.08;100.00;96114.19;4964177;28;20089;-44
2022/10/21 04:10:45;;;;;;;18.48;13.55;;;;;;;18.30;100.00;96106.63;4964425;28;20085;-46
2022/10/21 04:13:15;;;;;;;17.10;12.60;;;;;;;18.47;100.00;96106.03;4964346;28;20093;-45
2022/10/21 04:15:44;;;;;;;19.60;13.52;;;;;;;19.02;100.00;96083.72;4970520;28;20078;-45
2022/10/21 04:18:12;;;;;;;16.95;13.00;;;;;;;18.39;100.00;96092.88;4970610;28;20082;-43
2022/10/21 04:20:40;;;;;;;17.20;13.27;;;;;;;17.96;100.00;96095.00;4970228;28;20106;-51
2022/10/21 04:23:09;;;;;;;18.45;14.00;;;;;;;17.13;100.00;96094.13;4967848;28;20083;-48
2022/10/21 04:25:37;;;;;;;21.52;14.48;;;;;;;17.90;100.00;96101.16;4970496;28;20090;-48
2022/10/21 04:28:05;;;;;;;19.17;14.73;;;;;;;18.38;100.00;96085.09;4970263;28;20093;-46
2022/10/21 04:30:35;;;;;;;19.17;13.68;;;;;;;17.64;100.00;96075.16;4966457;28;20074;-42
2022/10/21 04:33:03;;;;;;;20.33;13.38;;;;;;;17.48;100.00;96065.63;4969935;28;20086;-46
2022/10/21 04:35:32;;;;;;;21.48;14.23;;;;;;;17.27;100.00;96056.72;4970530;28;20089;-44
2022/10/21 04:38:00;;;;;;;22.55;14.45;;;;;;;17.39;100.00;96050.84;4970349;28;20079;-45
2022/10/21 04:40:28;;;;;;;18.88;14.13;;;;;;;17.08;100.00;96044.09;4969099;28;20084;-47
2022/10/21 04:42:56;;;;;;;25.02;15.20;;;;;;;16.76;100.00;96037.53;4969178;28;20074;-43
2022/10/21 04:45:25;;;;;;;20.67;14.15;;;;;;;16.51;100.00;96037.09;4969808;28;20082;-48
2022/10/21 04:47:54;;;;;;;21.48;15.32;;;;;;;16.84;100.00;96027.56;4969751;28;20090;-42
2022/10/21 04:50:22;;;;;;;22.45;15.05;;;;;;;16.92;100.00;96034.56;4970470;28;20090;-44
2022/10/21 04:52:51;;;;;;;20.65;14.35;;;;;;;17.13;100.00;96028.34;4969985;28;20046;-46
2022/10/21 04:55:19;;;;;;;20.77;14.52;;;;;;;17.47;100.00;96019.50;4964428;28;20501;-44
2022/10/21 04:57:47;;;;;;;19.42;14.45;;;;;;;17.01;100.00;96008.63;4970057;28;20111;-49
2022/10/21 05:00:16;;;;;;;22.35;14.13;;;;;;;17.05;100.00;96005.34;4967563;28;20081;-47
2022/10/21 05:02:44;;;;;;;22.15;14.73;;;;;;;17.05;100.00;96012.53;4964455;28;20101;-46
2022/10/21 05:05:14;;;;;;;22.42;15.10;;;;;;;17.39;100.00;96013.53;4963190;28;20094;-45
2022/10/21 05:07:42;;;;;;;21.73;15.47;;;;;;;17.32;100.00;96014.31;4969829;28;20093;-44
2022/10/21 05:10:10;;;;;;;19.50;14.35;;;;;;;17.61;100.00;96012.38;4969714;28;20101;-41
2022/10/21 05:12:38;;;;;;;20.92;14.50;;;;;;;17.46;100.00;96009.88;4969624;28;20070;-42
2022/10/21 05:15:07;;;;;;;21.05;15.13;;;;;;;17.30;100.00;96013.66;4969984;28;20094;-46
2022/10/21 05:17:36;;;;;;;21.55;14.25;;;;;;;17.55;100.00;96013.19;4969854;28;20078;-45
2022/10/21 05:20:06;;;;;;;22.45;14.80;;;;;;;17.40;100.00;96005.31;4970089;28;20086;-48
2022/10/21 05:22:36;;;;;;;18.63;14.40;;;;;;;17.53;100.00;95996.56;4965763;28;20097;-45
2022/10/21 05:25:21;;;;;;;23.38;14.55;;;;;;;17.30;100.00;95994.19;4970161;28;20074;-44
2022/10/21 05:27:51;;;;;;;20.98;14.68;;;;;;;17.46;100.00;96004.53;4969679;28;20091;-44
2022/10/21 05:30:19;;;;;;;22.60;15.05;;;;;;;17.44;100.00;96008.41;4969238;28;20073;-45
2022/10/21 05:32:47;;;;;;;23.27;16.38;;;;;;;17.49;100.00;95996.13;4969353;28;20086;-43
2022/10/21 05:35:16;;;;;;;23.52;15.90;;;;;;;17.11;100.00;95992.28;4969196;28;20113;-43
2022/10/21 05:37:45;;;;;;;20.38;15.40;;;;;;;17.08;100.00;95991.63;4966855;28;20082;-43
2022/10/21 05:40:14;;;;;;;21.02;14.82;;;;;;;17.13;100.00;95996.38;4963830;28;20625;-46
2022/10/21 05:42:42;;;;;;;20.67;14.90;;;;;;;17.61;100.00;96003.56;4962901;28;20450;-49
2022/10/21 05:45:11;;;;;;;26.25;15.57;;;;;;;17.68;100.00;95991.88;4969872;28;20094;-47
2022/10/21 05:47:41;;;;;;;20.77;15.10;;;;;;;17.84;100.00;96004.06;4969553;28;20067;-50
2022/10/21 05:50:09;;;;;;;20.23;15.13;;;;;;;17.72;100.00;96006.50;4969373;28;20093;-43
2022/10/21 05:52:38;;;;;;;22.80;15.00;;;;;;;17.72;100.00;96000.31;4969633;28;20090;-44
2022/10/21 05:55:09;;;;;;;20.50;14.77;;;;;;;17.95;100.00;96008.81;4968861;28;20078;-46
2022/10/21 05:57:38;;;;;;;22.33;14.55;;;;;;;17.61;100.00;96015.03;4972994;28;20055;-42
2022/10/21 06:00:08;;;;;;;19.77;14.90;;;;;;;17.66;100.00;96009.13;4965857;28;20082;-44
2022/10/21 06:02:36;;;;;;;22.92;15.20;;;;;;;17.28;100.00;96010.41;4965041;28;20101;-47
2022/10/21 06:05:05;;;;;;;18.25;14.80;;;;;;;17.46;100.00;95999.19;4966536;28;20085;-42
2022/10/21 06:07:34;;;;;;;23.40;14.82;;;;;;;17.55;100.00;96002.53;4972200;28;20098;-47
2022/10/21 06:10:03;;;;;;;24.42;15.90;;;;;;;17.10;100.00;95991.44;4972762;28;20082;-45
2022/10/21 06:12:34;;;;;;;24.13;16.02;;;;;;;16.78;100.00;95984.91;4972887;28;20101;-42
2022/10/21 06:15:02;;;;;;;23.48;15.25;;;;;;;17.03;100.00;95995.91;4968954;28;20098;-39
2022/10/21 06:17:30;;;;;;;23.23;16.25;;;;;;;16.77;100.00;95997.41;4972671;28;20093;-43
2022/10/21 06:20:00;;;;;;;24.63;17.13;;;;;;;17.17;100.00;96010.97;4972293;28;20082;-48
2022/10/21 06:22:28;;;;;;;24.85;16.58;;;;;;;17.38;100.00;96015.38;4972140;28;20078;-47
2022/10/21 06:24:57;;;;;;;26.15;16.40;;;;;;;17.15;100.00;96012.16;4967825;28;20465;-46
2022/10/21 06:27:25;;;;;;;25.27;16.85;;;;;;;16.98;100.00;96001.00;4972299;28;20082;-46
2022/10/21 06:29:54;;;;;;;21.50;15.98;;;;;;;16.84;100.00;96000.91;4972020;28;20087;-45
2022/10/21 06:32:23;;;;;;;24.17;16.20;;;;;;;16.78;100.00;96001.69;4971749;28;20078;-43
2022/10/21 06:34:51;;;;;;;25.05;18.00;;;;;;;16.66;100.00;96008.56;4972425;28;20455;-43
2022/10/21 06:37:19;;;;;;;22.63;17.27;;;;;;;17.11;100.00;96009.09;4972246;28;20090;-43
2022/10/21 06:39:47;;;;;;;22.48;16.50;;;;;;;17.15;100.00;96007.66;4971980;28;20082;-45
2022/10/21 06:42:16;;;;;;;26.83;16.65;;;;;;;16.94;100.00;96018.41;4961101;28;20182;-48
2022/10/21 06:44:44;;;;;;;28.77;16.67;;;;;;;17.27;100.00;96015.91;4971844;28;20078;-47
2022/10/21 06:47:31;;;;;;;25.63;16.10;;;;;;;16.82;100.00;96018.09;4971248;28;20086;-49
2022/10/21 06:50:01;;;;;;;27.17;15.55;;;;;;;17.46;100.00;96003.72;4970247;28;20102;-52
2022/10/21 06:52:30;;;;;;;21.58;15.95;;;;;;;17.05;100.00;96013.34;4968840;28;20105;-48
2022/10/21 06:54:58;;;;;;;21.50;14.95;;;;;;;17.00;100.00;96015.78;4970195;28;20085;-45
2022/10/21 06:57:27;;;;;;;26.13;15.18;;;;;;;17.56;100.00;96004.97;4962923;28;20074;-49
2022/10/21 06:59:55;;;;;;;24.27;16.05;;;;;;;17.63;100.00;96005.00;4971600;28;20085;-45
2022/10/21 07:02:24;;;;;;;19.02;15.27;;;;;;;17.69;100.00;95995.41;4971127;28;20093;-48
2022/10/21 07:04:56;;;;;;;19.73;15.07;;;;;;;17.58;100.00;95995.94;4971705;28;20117;-44
2022/10/21 07:07:24;;;;;;;22.92;16.33;;;;;;;17.46;100.00;95993.06;4971225;28;20608;-47
2022/10/21 07:09:56;;;;;;;21.50;15.75;;;;;;;17.41;100.00;95990.16;4972119;28;20085;-43
2022/10/21 07:12:25;;;;;;;21.20;16.08;;;;;;;17.21;100.00;95988.22;4972186;28;20087;-46
2022/10/21 07:14:54;;;;;;;20.85;15.50;;;;;;;17.32;100.00;95985.00;4967931;28;20083;-47
2022/10/21 07:17:22;;;;;;;25.00;16.17;;;;;;;17.41;100.00;95984.81;4971969;28;20464;-48
2022/10/21 07:19:50;;;;;;;20.67;15.60;;;;;;;17.56;100.00;95981.00;4971242;28;20086;-47
2022/10/21 07:22:20;;;;;;;19.40;15.27;;;;;;;17.55;100.00;95970.53;4971721;28;20086;-43
2022/10/21 07:24:48;;;;;;;21.60;15.82;;;;;;;17.75;100.00;95970.56;4971663;28;20087;-43
2022/10/21 07:27:16;;;;;;;22.63;15.25;;;;;;;17.72;100.00;95966.47;4971473;28;20098;-46
2022/10/21 07:29:45;;;;;;;18.15;15.23;;;;;;;17.92;100.00;95965.72;4966986;28;20089;-44
2022/10/21 07:32:13;;;;;;;21.90;15.32;;;;;;;17.64;100.00;95955.97;4965736;28;20082;-47
2022/10/21 07:34:41;;;;;;;24.40;16.05;;;;;;;18.00;100.00;95946.88;4969356;28;20082;-48
2022/10/21 07:37:10;;;;;;;20.40;15.88;;;;;;;18.68;100.00;95936.75;4966723;28;20462;-45
2022/10/21 07:39:39;;;;;;;18.50;13.80;;;;;;;17.97;100.00;95936.59;4969110;28;20490;-44
2022/10/21 07:42:08;;;;;;;23.90;15.53;;;;;;;18.44;100.00;95940.94;4971263;28;20075;-42
2022/10/21 07:44:36;;;;;;;22.92;16.55;;;;;;;17.93;100.00;95943.38;4969527;28;20075;-47
2022/10/21 07:47:05;;;;;;;21.05;15.20;;;;;;;18.59;100.00;95935.34;4968663;28;20089;-44
2022/10/21 07:49:33;;;;;;;24.67;15.75;;;;;;;18.74;100.00;95933.28;4970558;28;20070;-49
2022/10/21 07:52:01;;;;;;;22.73;15.02;;;;;;;18.38;100.00;95936.41;4967707;28;20082;-46
2022/10/21 07:54:29;;;;;;;22.10;15.50;;;;;;;18.73;100.00;95933.50;4969084;28;20082;-43
2022/10/21 07:56:59;;;;;;;21.58;16.40;;;;;;;18.57;100.00;95937.41;4970910;28;20078;-44
2022/10/21 07:59:27;;;;;;;22.45;14.35;;;;;;;18.61;100.00;95937.81;4970061;28;20093;-43
2022/10/21 08:01:55;;;;;;;21.00;14.35;;;;;;;18.48;100.00;95930.66;4970350;28;20462;-44
2022/10/21 08:04:28;;;;;;;20.58;14.82;;;;;;;18.58;100.00;95922.19;4970503;28;20089;-43
2022/10/21 08:06:56;;;;;;;20.00;13.68;;;;;;;19.31;100.00;95924.72;4970546;28;20090;-44
2022/10/21 08:09:25;;;;;;;17.95;12.52;;;;;;;19.42;100.00;95924.84;4970147;28;20090;-51
2022/10/21 08:11:53;;;;;;;18.90;12.52;;;;;;;18.91;100.00;95927.50;4964319;28;20086;-47
2022/10/21 08:14:23;;;;;;;17.88;12.35;;;;;;;19.98;100.00;95925.19;4964326;28;20093;-46
2022/10/21 08:16:52;;;;;;;20.00;12.70;;;;;;;19.51;100.00;95928.13;4970279;28;20082;-47
2022/10/21 08:19:28;;;;;;;18.00;11.65;;;;;;;19.12;100.00;95937.09;4969704;28;20494;-46
2022/10/21 08:21:57;;;;;;;19.13;13.45;;;;;;;18.87;100.00;95931.63;4965673;28;20093;-47
2022/10/21 08:24:25;;;;;;;18.88;12.00;;;;;;;19.64;100.00;95932.59;4970324;28;20086;-49
2022/10/21 08:26:54;;;;;;;16.40;12.73;;;;;;;19.78;100.00;95925.28;4964629;28;20109;-47
2022/10/21 08:29:23;;;;;;;16.50;11.98;;;;;;;20.43;100.00;95922.34;4969966;28;20623;-47
2022/10/21 08:31:52;;;;;;;16.30;11.23;;;;;;;20.31;100.00;95922.25;4964648;28;20082;-45
2022/10/21 08:34:20;;;;;;;18.08;10.73;;;;;;;20.28;100.00;95928.03;4969978;28;20086;-48
2022/10/21 08:36:48;;;;;;;16.85;10.82;;;;;;;19.94;100.00;95918.63;4970482;28;20082;-52
2022/10/21 08:39:16;;;;;;;16.05;11.65;;;;;;;20.00;100.00;95920.44;4970277;28;20085;-51
2022/10/21 08:42:01;;;;;;;15.90;11.05;;;;;;;19.32;100.00;95921.00;4970539;28;20394;-50
2022/10/21 08:44:37;;;;;;;19.70;11.77;;;;;;;20.03;100.00;95910.13;4962519;28;20144;-51
2022/10/21 08:47:11;;;;;;;17.35;10.93;;;;;;;19.87;100.00;95916.81;4964115;28;20066;-44
2022/10/21 08:49:50;;;;;;;16.35;10.60;;;;;;;20.80;100.00;95918.72;4965191;28;20495;-50
2022/10/21 08:52:22;;;;;;;14.57;10.20;;;;;;;20.76;100.00;95919.41;4969718;28;20098;-45
2022/10/21 08:54:54;;;;;;;18.83;11.05;;;;;;;19.62;100.00;95932.78;4968020;28;20568;-45
2022/10/21 08:57:23;;;;;;;20.65;10.13;;;;;;;20.30;100.00;95929.47;4970153;28;20082;-43
2022/10/21 08:59:52;;;;;;;14.85;10.60;;;;;;;20.66;100.00;95921.75;4969738;28;20071;-45
2022/10/21 09:02:38;;;;;;;14.85;10.60;;;;;;;20.78;100.00;95930.69;4970419;28;20086;-47
2022/10/21 09:05:28;;;;;;;22.80;11.18;;;;;;;20.24;100.00;95924.16;4969615;28;20083;-42
2022/10/21 09:08:03;;;;;;;13.45;10.35;;;;;;;20.26;100.00;95927.44;4961602;28;20089;-46
2022/10/21 09:10:41;;;;;;;18.48;10.20;;;;;;;20.82;100.00;95931.91;4970633;28;20085;-45
2022/10/21 09:13:13;;;;;;;16.88;10.60;;;;;;;20.10;100.00;95936.84;4970394;28;20090;-48
2022/10/21 09:15:51;;;;;;;18.95;10.60;;;;;;;20.05;100.00;95934.78;4970518;28;20081;-45
2022/10/21 09:18:28;;;;;;;17.17;10.20;;;;;;;19.93;100.00;95941.88;4970181;28;20082;-49
2022/10/21 09:21:04;;;;;;;14.13;10.85;;;;;;;19.42;100.00;95940.06;4970045;28;20089;-48
2022/10/21 09:23:53;;;;;;;15.95;10.55;;;;;;;20.42;100.00;95951.00;4968734;28;20074;-46
2022/10/21 09:26:38;;;;;;;14.07;10.23;;;;;;;20.20;100.00;95953.25;4969898;28;20466;-45
2022/10/21 09:29:23;;;;;;;14.13;10.30;;;;;;;19.81;100.00;95959.66;4968736;28;20648;-45
2022/10/21 09:31:54;;;;;;;14.27;9.98;;;;;;;20.27;100.00;95953.19;4968565;28;20182;-46
2022/10/21 09:34:42;;;;;;;19.00;10.20;;;;;;;20.58;100.00;95963.88;4973665;28;20094;-46
2022/10/21 09:37:16;;;;;;;16.38;9.52;;;;;;;20.80;100.00;95960.78;4967804;28;20071;-45
2022/10/21 09:39:47;;;;;;;16.15;9.98;;;;;;;20.71;100.00;95965.59;4972539;28;20138;-47
2022/10/21 09:42:16;;;;;;;15.77;8.95;;;;;;;21.05;100.00;95983.00;4972774;28;20082;-51
2022/10/21 09:45:05;;;;;;;14.32;9.23;;;;;;;21.51;100.00;95981.69;4966848;28;20091;-46
2022/10/21 09:47:34;;;;;;;15.52;9.85;;;;;;;21.21;100.00;95981.59;4967402;28;20071;-46
2022/10/21 09:50:03;;;;;;;13.27;8.63;;;;;;;21.36;100.00;95985.78;4972716;28;20090;-44
2022/10/21 09:52:36;;;;;;;14.63;9.57;;;;;;;21.23;100.00;95976.84;4973204;28;20078;-47
2022/10/21 09:55:06;;;;;;;18.70;9.20;;;;;;;21.16;100.00;95977.94;4973331;28;20093;-43
2022/10/21 09:57:42;;;;;;;16.95;9.73;;;;;;;21.20;100.00;95992.56;4972991;28;20753;-43
2022/10/21 10:00:11;;;;;;;26.65;11.40;;;;;;;21.23;100.00;96000.97;4969471;28;20082;-45
2022/10/21 10:02:44;;;;;;;16.98;10.00;;;;;;;20.88;100.00;96018.63;4971727;28;20089;-44
2022/10/21 10:05:35;;;;;;;14.52;9.60;;;;;;;20.69;100.00;96034.69;4967336;28;20074;-44
2022/10/21 10:08:24;;;;;;;15.20;9.05;;;;;;;20.56;100.00;96065.06;4968449;28;20066;-47
2022/10/21 10:11:01;;;;;;;15.52;9.10;;;;;;;19.84;100.00;96083.13;4973144;28;20097;-43
2022/10/21 10:13:30;;;;;;;14.40;8.65;;;;;;;19.75;100.00;96092.44;4971275;28;20086;-46
2022/10/21 10:16:18;;;;;;;16.85;9.68;;;;;;;19.98;100.00;96091.13;4973153;28;20258;-44
2022/10/21 10:18:48;;;;;;;11.75;8.65;;;;;;;20.49;100.00;96085.69;4967243;28;20074;-43
2022/10/21 10:21:17;;;;;;;16.20;9.07;;;;;;;19.99;100.00;96084.72;4971284;28;20090;-45
2022/10/21 10:23:48;;;;;;;16.60;8.65;;;;;;;19.70;100.00;96099.47;4972708;28;20074;-44
2022/10/21 10:26:23;;;;;;;;;;;;;;;19.65;100.00;96095.56;4972251;28;20535;-48
2022/10/21 10:28:54;;;;;;;13.95;8.57;;;;;;;19.71;100.00;96090.38;4971130;28;19969;-43
2022/10/21 10:31:29;;;;;;;13.68;8.73;;;;;;;20.24;100.00;96087.50;4966643;28;20086;-47
2022/10/21 10:34:00;;;;;;;13.88;9.43;;;;;;;20.21;100.00;96104.81;4972709;28;20446;-46
2022/10/21 10:36:31;;;;;;;14.63;9.52;;;;;;;20.08;100.00;96110.22;4968902;28;20069;-43
2022/10/21 10:39:01;;;;;;;14.98;9.60;;;;;;;19.98;100.00;96113.34;4967457;28;20090;-47
2022/10/21 10:41:32;;;;;;;14.32;9.32;;;;;;;20.12;100.00;96114.91;4961652;28;20078;-48
2022/10/21 10:44:02;;;;;;;15.70;9.23;;;;;;;20.35;100.00;96109.06;4971856;28;20070;-44
2022/10/21 10:46:31;;;;;;;20.40;10.43;;;;;;;20.67;100.00;96103.72;4968940;28;20112;-49
2022/10/21 10:49:05;;;;;;;15.27;9.60;;;;;;;20.36;100.00;96109.88;4972660;28;20074;-50
2022/10/21 10:51:35;;;;;;;15.23;9.20;;;;;;;20.23;100.00;96107.25;4971613;28;20066;-48
2022/10/21 10:54:16;;;;;;;13.75;10.23;;;;;;;;;;4972583;28;20075;-50
2022/10/21 10:56:45;;;;;;;;;;;;;;;20.86;100.00;96105.47;4972569;28;20348;-45
2022/10/21 10:59:16;;;;;;;13.77;9.02;;;;;;;21.27;100.00;96104.09;4971684;28;19961;-45
2022/10/21 11:01:51;;;;;;;14.00;9.52;;;;;;;21.77;100.00;96097.81;4964745;28;20082;-45
2022/10/21 11:04:25;;;;;;;14.75;9.88;;;;;;;21.69;100.00;96090.88;4972008;28;20074;-42
2022/10/21 11:06:56;;;;;;;17.63;9.57;;;;;;;22.58;100.00;96083.16;4971482;28;20078;-46
2022/10/21 11:09:25;;;;;;;16.40;9.77;;;;;;;22.55;100.00;96077.44;4966202;28;20474;-49
2022/10/21 11:11:55;;;;;;;12.20;8.43;;;;;;;23.26;100.00;96073.81;4971890;28;20083;-49
2022/10/21 11:14:23;;;;;;;12.63;9.13;;;;;;;23.48;100.00;96060.59;4969833;28;20098;-47
2022/10/21 11:17:06;;;;;;;11.38;8.63;;;;;;;22.88;100.00;96058.91;4971766;28;20089;-45
2022/10/21 11:19:43;;;;;;;17.88;9.50;;;;;;;23.21;100.00;96049.47;4971323;28;20137;-45
2022/10/21 11:22:15;;;;;;;14.07;10.07;;;;;;;21.96;100.00;96045.75;4965671;28;20086;-43
2022/10/21 11:24:54;;;;;;;14.77;8.93;;;;;;;22.65;100.00;96038.19;4969841;28;20085;-47
2022/10/21 11:27:44;;;;;;;15.88;9.45;;;;;;;22.26;100.00;96032.38;4971791;28;20070;-48
2022/10/21 11:30:14;;;;;;;16.77;9.33;;;;;;;22.66;100.00;96069.38;4967525;28;20074;-48